Time;durP1;ratioP1;P1;durP2;ratioP2;P2;SDS_P1;SDS_P2;PMS_P1;PMS_P2;Temp;Humidity;BMP_temperature;BMP_pressure;BME280_temperature;BME280_humidity;BME280_pressure;Samples;Min_cycle;Max_cycle;Signal;HPM_P1;HPM_P2
2022/03/15 00:00:23;;;;;;;42.75;33.58;;;8.40;99.90;;;;;;5051419;28;20376;-84
2022/03/15 00:02:49;;;;;;;45.53;34.93;;;8.40;99.90;;;;;;5049686;28;20384;-82
2022/03/15 00:05:20;;;;;;;44.87;35.60;;;8.50;99.90;;;;;;5062325;28;20451;-83
2022/03/15 00:07:47;;;;;;;45.58;33.20;;;8.40;99.90;;;;;;5068695;28;20378;-82
2022/03/15 00:10:14;;;;;;;45.92;35.25;;;8.40;99.90;;;;;;5050816;28;20404;-82
2022/03/15 00:12:40;;;;;;;44.13;34.75;;;8.30;99.90;;;;;;5051892;28;20403;-83
2022/03/15 00:15:08;;;;;;;45.78;33.47;;;8.40;99.90;;;;;;5055349;28;20746;-82
2022/03/15 00:17:35;;;;;;;44.97;34.35;;;8.40;99.90;;;;;;5051647;28;20379;-82
2022/03/15 00:20:01;;;;;;;43.92;35.00;;;8.30;99.90;;;;;;5059673;28;20428;-82
2022/03/15 00:22:26;;;;;;;44.10;34.03;;;8.30;99.90;;;;;;5066976;28;20390;-81
2022/03/15 00:24:52;;;;;;;42.95;32.35;;;8.40;99.90;;;;;;5066331;28;20374;-83
2022/03/15 00:27:18;;;;;;;42.43;33.50;;;8.40;99.90;;;;;;5066745;28;21215;-82
2022/03/15 00:29:46;;;;;;;40.88;32.33;;;8.30;99.90;;;;;;5050213;28;20474;-83
2022/03/15 00:32:17;;;;;;;41.13;32.42;;;8.30;99.90;;;;;;5050174;28;20884;-82
2022/03/15 00:34:43;;;;;;;41.05;31.90;;;8.40;99.90;;;;;;5059630;28;20394;-82
2022/03/15 00:37:09;;;;;;;40.92;32.08;;;8.40;99.90;;;;;;5054463;28;20399;-83
2022/03/15 00:39:34;;;;;;;44.65;33.28;;;8.30;99.90;;;;;;5060963;28;20396;-83
2022/03/15 00:42:00;;;;;;;43.73;34.70;;;8.20;99.90;;;;;;5050842;28;20372;-81
2022/03/15 00:44:25;;;;;;;44.03;33.20;;;8.20;99.90;;;;;;5054698;28;20783;-82
2022/03/15 00:46:52;;;;;;;42.95;34.13;;;8.10;99.90;;;;;;5069305;28;20905;-82
2022/03/15 00:49:18;;;;;;;44.50;33.10;;;8.10;99.90;;;;;;5068757;28;20374;-81
2022/03/15 00:51:44;;;;;;;45.03;33.67;;;8.00;99.90;;;;;;5069428;28;20378;-82
2022/03/15 00:54:09;;;;;;;45.33;33.47;;;8.00;99.90;;;;;;5069307;28;20851;-82
2022/03/15 00:56:35;;;;;;;47.30;34.10;;;8.00;99.90;;;;;;5069774;28;20461;-82
2022/03/15 00:59:02;;;;;;;43.97;34.15;;;8.00;99.90;;;;;;5069528;28;20412;-81
2022/03/15 01:01:27;;;;;;;46.83;33.10;;;8.00;99.90;;;;;;5069083;28;20388;-83
2022/03/15 01:03:53;;;;;;;43.33;32.83;;;7.90;99.90;;;;;;5068902;28;20457;-82
2022/03/15 01:06:19;;;;;;;43.43;33.53;;;7.90;99.90;;;;;;5067890;28;20378;-83
2022/03/15 01:08:44;;;;;;;43.05;32.03;;;7.90;99.90;;;;;;5067749;28;20467;-82
2022/03/15 01:11:10;;;;;;;44.30;32.87;;;7.80;99.90;;;;;;5067766;28;20393;-82
2022/03/15 01:13:35;;;;;;;43.57;32.77;;;7.70;99.90;;;;;;5067120;28;20760;-81
2022/03/15 01:16:01;;;;;;;44.05;33.03;;;7.70;99.90;;;;;;5067557;28;20789;-81
2022/03/15 01:18:27;;;;;;;41.55;32.25;;;7.60;99.90;;;;;;5067585;28;20378;-81
2022/03/15 01:20:53;;;;;;;43.97;32.43;;;7.60;99.90;;;;;;5068037;28;20444;-82
2022/03/15 01:23:18;;;;;;;45.10;33.63;;;7.60;99.90;;;;;;5077081;28;20394;-82
2022/03/15 01:25:44;;;;;;;48.73;34.50;;;7.60;99.90;;;;;;5073551;28;20386;-81
2022/03/15 01:28:10;;;;;;;46.70;33.25;;;7.50;99.90;;;;;;5068048;28;20824;-81
2022/03/15 01:30:36;;;;;;;45.90;33.78;;;7.30;99.90;;;;;;5072997;28;20373;-81
2022/03/15 01:33:02;;;;;;;48.35;33.80;;;7.20;99.90;;;;;;5075287;28;20481;-81
2022/03/15 01:35:28;;;;;;;41.37;31.43;;;7.20;99.90;;;;;;5052190;28;20481;-82
2022/03/15 01:37:53;;;;;;;44.70;32.87;;;7.10;99.90;;;;;;5049411;28;20746;-80
2022/03/15 01:40:20;;;;;;;48.80;34.80;;;7.00;99.90;;;;;;5059285;28;20387;-81
2022/03/15 01:42:46;;;;;;;42.25;31.48;;;6.90;99.90;;;;;;5065586;28;20382;-80
2022/03/15 01:45:12;;;;;;;46.90;33.33;;;6.90;99.90;;;;;;5065736;28;20386;-81
2022/03/15 01:47:38;;;;;;;40.97;30.75;;;6.70;99.90;;;;;;5069212;28;20944;-81
2022/03/15 01:50:04;;;;;;;43.38;32.58;;;6.70;99.90;;;;;;5067219;28;20382;-82
2022/03/15 01:52:30;;;;;;;44.90;32.13;;;6.50;99.90;;;;;;5058228;28;20399;-81
2022/03/15 01:54:56;;;;;;;43.47;31.97;;;6.40;99.90;;;;;;5061493;28;20386;-80
2022/03/15 01:57:23;;;;;;;50.33;33.97;;;6.30;99.90;;;;;;5066729;28;20887;-81
2022/03/15 01:59:49;;;;;;;43.40;31.88;;;6.10;99.90;;;;;;5057060;28;20767;-81
2022/03/15 02:02:14;;;;;;;42.83;30.23;;;6.10;99.90;;;;;;5051928;28;20414;-81
2022/03/15 02:04:40;;;;;;;49.53;33.85;;;6.00;99.90;;;;;;5048302;28;20916;-81
2022/03/15 02:07:09;;;;;;;47.65;33.85;;;5.90;99.90;;;;;;5053239;28;20875;-82
2022/03/15 02:09:35;;;;;;;47.97;33.50;;;5.90;99.90;;;;;;5060173;28;20502;-80
2022/03/15 02:12:02;;;;;;;48.13;34.20;;;5.80;99.90;;;;;;5061093;28;20424;-80
2022/03/15 02:14:28;;;;;;;49.20;34.65;;;5.80;99.90;;;;;;5070259;28;20382;-81
2022/03/15 02:16:55;;;;;;;42.70;30.85;;;5.70;99.90;;;;;;5071344;28;20392;-81
2022/03/15 02:19:22;;;;;;;39.10;29.95;;;5.60;99.90;;;;;;5063117;28;20486;-80
2022/03/15 02:21:49;;;;;;;45.63;32.25;;;5.60;99.90;;;;;;5051217;28;20391;-81
2022/03/15 02:24:15;;;;;;;49.38;34.22;;;5.50;99.90;;;;;;5068996;28;20411;-81
2022/03/15 02:26:40;;;;;;;47.13;31.95;;;5.40;99.90;;;;;;5072557;28;20902;-81
2022/03/15 02:29:06;;;;;;;51.88;34.72;;;5.30;99.90;;;;;;5063091;28;20476;-80
2022/03/15 02:31:32;;;;;;;57.73;37.53;;;5.20;99.90;;;;;;5058924;28;20382;-81
2022/03/15 02:33:57;;;;;;;51.93;34.27;;;5.20;99.90;;;;;;5054731;28;20410;-81
2022/03/15 02:36:23;;;;;;;53.57;36.00;;;5.10;99.90;;;;;;5068321;28;20385;-81
2022/03/15 02:38:49;;;;;;;47.42;33.30;;;5.10;99.90;;;;;;5053584;28;20381;-81
2022/03/15 02:41:15;;;;;;;43.55;30.10;;;5.00;99.90;;;;;;5053642;28;20388;-81
2022/03/15 02:43:42;;;;;;;47.50;32.75;;;5.00;99.90;;;;;;5051282;28;20738;-81
2022/03/15 02:46:08;;;;;;;49.45;33.58;;;4.90;99.90;;;;;;5052023;28;20950;-81
2022/03/15 02:48:34;;;;;;;46.90;31.67;;;4.70;99.90;;;;;;5070074;28;20374;-81
2022/03/15 02:51:04;;;;;;;49.30;34.27;;;4.70;99.90;;;;;;5053901;28;20864;-81
2022/03/15 02:53:30;;;;;;;44.97;30.95;;;4.70;99.90;;;;;;5052356;28;20441;-81
2022/03/15 02:55:55;;;;;;;43.67;29.60;;;4.70;99.90;;;;;;5054512;28;20422;-82
2022/03/15 02:58:21;;;;;;;48.33;32.73;;;4.50;99.90;;;;;;5054618;28;20387;-81
2022/03/15 03:00:47;;;;;;;43.57;29.80;;;4.40;99.90;;;;;;5068165;28;21096;-81
2022/03/15 03:03:13;;;;;;;47.88;33.22;;;4.50;99.90;;;;;;5052743;28;20396;-81
2022/03/15 03:05:39;;;;;;;43.85;30.50;;;4.40;99.90;;;;;;5051352;28;20449;-81
2022/03/15 03:08:05;;;;;;;42.78;29.35;;;4.30;99.90;;;;;;5051477;28;20395;-81
2022/03/15 03:10:32;;;;;;;44.67;30.63;;;4.20;99.90;;;;;;5053013;28;20380;-81
2022/03/15 03:12:58;;;;;;;42.08;28.92;;;4.20;99.90;;;;;;5053358;28;20470;-80
2022/03/15 03:15:24;;;;;;;43.03;30.60;;;4.10;99.90;;;;;;5066866;28;20923;-81
2022/03/15 03:17:50;;;;;;;43.55;30.85;;;4.00;99.90;;;;;;5051098;28;20419;-81
2022/03/15 03:20:21;;;;;;;43.28;29.83;;;4.00;99.90;;;;;;5065975;28;20374;-81
2022/03/15 03:22:48;;;;;;;41.97;29.05;;;3.90;99.90;;;;;;5068567;28;20378;-82
2022/03/15 03:25:15;;;;;;;40.08;29.08;;;3.90;99.90;;;;;;5051206;28;20394;-81
2022/03/15 03:27:41;;;;;;;44.25;29.63;;;3.80;99.90;;;;;;5069154;28;20386;-81
2022/03/15 03:30:07;;;;;;;42.28;28.95;;;3.70;99.90;;;;;;5068740;28;20982;-81
2022/03/15 03:32:34;;;;;;;38.85;28.50;;;3.70;99.90;;;;;;5069148;28;20437;-81
2022/03/15 03:35:04;;;;;;;39.67;28.08;;;3.70;99.90;;;;;;5068847;28;20730;-81
2022/03/15 03:37:30;;;;;;;39.42;27.58;;;3.70;99.90;;;;;;5062722;28;20384;-81
2022/03/15 03:39:56;;;;;;;47.03;33.08;;;3.60;99.90;;;;;;5063976;28;20381;-81
2022/03/15 03:42:22;;;;;;;47.72;33.22;;;3.50;99.90;;;;;;5072717;28;20399;-79
2022/03/15 03:44:47;;;;;;;48.67;33.37;;;3.50;99.90;;;;;;5053681;28;20375;-81
2022/03/15 03:47:13;;;;;;;42.17;30.87;;;3.50;99.90;;;;;;5064092;28;21112;-80
2022/03/15 03:49:40;;;;;;;42.58;30.48;;;3.50;99.90;;;;;;5076238;28;20380;-81
2022/03/15 03:52:07;;;;;;;44.90;32.13;;;3.50;99.90;;;;;;5049304;28;20453;-81
2022/03/15 03:54:34;;;;;;;45.07;30.27;;;3.50;99.90;;;;;;5051358;28;20411;-81
2022/03/15 03:57:00;;;;;;;45.92;32.22;;;3.50;99.90;;;;;;5062175;28;20410;-81
2022/03/15 03:59:25;;;;;;;43.22;30.50;;;3.40;99.90;;;;;;5052072;28;20425;-81
2022/03/15 04:01:51;;;;;;;42.13;29.42;;;3.40;99.90;;;;;;5066113;28;20450;-81
2022/03/15 04:04:17;;;;;;;44.23;30.70;;;3.30;99.90;;;;;;5056243;28;20465;-81
2022/03/15 04:06:44;;;;;;;42.83;29.95;;;3.30;99.90;;;;;;5060396;28;20394;-81
2022/03/15 04:09:10;;;;;;;47.33;31.33;;;3.30;99.90;;;;;;5049642;28;20465;-81
2022/03/15 04:11:40;;;;;;;56.85;33.67;;;3.30;99.90;;;;;;5049771;28;20394;-80
2022/03/15 04:14:11;;;;;;;84.40;48.78;;;3.30;99.90;;;;;;5069095;28;20875;-81
2022/03/15 04:16:37;;;;;;;75.20;40.55;;;3.30;99.90;;;;;;5064558;28;20383;-81
2022/03/15 04:19:03;;;;;;;64.53;35.85;;;3.30;99.90;;;;;;5063535;28;20425;-81
2022/03/15 04:21:29;;;;;;;62.35;36.03;;;3.30;99.90;;;;;;5051646;28;20496;-81
2022/03/15 04:23:56;;;;;;;55.35;33.60;;;3.40;99.90;;;;;;5050190;28;20901;-81
2022/03/15 04:26:23;;;;;;;107.18;48.47;;;3.40;99.90;;;;;;5067392;28;20378;-81
2022/03/15 04:28:49;;;;;;;182.27;64.15;;;3.40;99.90;;;;;;5052267;28;20379;-81
2022/03/15 04:31:14;;;;;;;137.32;56.00;;;3.50;99.90;;;;;;5066399;28;20401;-82
2022/03/15 04:33:40;;;;;;;105.28;50.17;;;3.60;99.90;;;;;;5067334;28;20402;-81
2022/03/15 04:36:06;;;;;;;94.80;45.85;;;3.70;99.90;;;;;;5052687;28;20379;-81
2022/03/15 04:38:32;;;;;;;78.28;42.55;;;3.70;99.90;;;;;;5050136;28;20408;-80
2022/03/15 04:40:59;;;;;;;88.18;45.85;;;3.70;99.90;;;;;;5050718;28;20380;-80
2022/03/15 04:43:25;;;;;;;97.50;49.20;;;3.70;99.90;;;;;;5049544;28;20391;-81
2022/03/15 04:45:51;;;;;;;108.50;54.87;;;3.70;99.90;;;;;;5051713;28;20406;-81
2022/03/15 04:48:20;;;;;;;104.32;49.05;;;3.70;99.90;;;;;;5055200;28;20392;-80
2022/03/15 04:50:46;;;;;;;107.13;52.23;;;3.70;99.90;;;;;;5049286;28;20463;-81
2022/03/15 04:53:11;;;;;;;93.43;51.20;;;3.70;99.90;;;;;;5067854;28;20408;-81
2022/03/15 04:55:37;;;;;;;168.17;60.27;;;3.70;99.90;;;;;;5067422;28;20374;-82
2022/03/15 04:58:03;;;;;;;135.00;55.20;;;3.70;99.90;;;;;;5056226;28;20949;-81
2022/03/15 05:00:28;;;;;;;174.37;57.37;;;3.70;99.90;;;;;;5048259;28;20412;-81
2022/03/15 05:02:56;;;;;;;171.33;57.57;;;3.80;99.90;;;;;;5068824;28;20386;-82
2022/03/15 05:05:21;;;;;;;146.67;56.90;;;3.80;99.90;;;;;;5055900;28;20390;-81
2022/03/15 05:07:47;;;;;;;107.60;51.80;;;3.70;99.90;;;;;;5068805;28;20375;-82
2022/03/15 05:12:57;;;;;;;207.53;63.67;;;3.70;99.90;;;;;;5048934;28;20469;-81
2022/03/15 05:15:23;;;;;;;186.70;60.90;;;3.70;99.90;;;;;;5050212;28;20391;-82
2022/03/15 05:17:50;;;;;;;177.75;56.10;;;3.70;99.90;;;;;;5058955;28;21303;-82
2022/03/15 05:20:17;;;;;;;234.87;60.60;;;3.70;99.90;;;;;;5063089;28;20386;-82
2022/03/15 05:22:48;;;;;;;174.75;59.00;;;3.80;99.90;;;;;;5062154;28;20733;-82
2022/03/15 05:25:14;;;;;;;160.70;45.38;;;3.70;99.90;;;;;;5067121;28;20412;-81
2022/03/15 05:27:41;;;;;;;78.82;42.72;;;3.70;99.90;;;;;;5054208;28;20386;-81
2022/03/15 05:30:08;;;;;;;219.32;59.28;;;3.80;99.90;;;;;;5065962;28;20386;-83
2022/03/15 05:32:34;;;;;;;134.88;52.65;;;3.70;99.90;;;;;;5056440;28;20494;-82
2022/03/15 05:35:01;;;;;;;104.30;48.88;;;3.80;99.90;;;;;;5051111;28;20482;-82
2022/03/15 05:37:27;;;;;;;94.88;47.80;;;3.80;99.90;;;;;;5062289;28;20388;-82
2022/03/15 05:39:53;;;;;;;130.20;48.80;;;3.80;99.90;;;;;;5050942;28;20390;-82
2022/03/15 05:42:19;;;;;;;175.77;55.75;;;3.80;99.90;;;;;;5065779;28;20397;-82
2022/03/15 05:44:45;;;;;;;145.43;52.95;;;3.90;99.90;;;;;;5063802;28;20433;-81
2022/03/15 05:47:11;;;;;;;88.80;46.53;;;3.90;99.90;;;;;;5061046;28;20420;-81
2022/03/15 05:49:37;;;;;;;146.60;50.17;;;4.00;99.90;;;;;;5066878;28;20386;-82
2022/03/15 05:52:03;;;;;;;83.83;41.50;;;4.00;99.90;;;;;;5050763;28;20437;-82
2022/03/15 05:54:29;;;;;;;139.00;47.53;;;4.20;99.90;;;;;;5065772;28;20464;-81
2022/03/15 05:56:55;;;;;;;58.10;35.50;;;4.30;99.90;;;;;;5056191;28;20399;-82
2022/03/15 05:59:21;;;;;;;136.82;53.38;;;4.40;99.90;;;;;;5055936;28;20378;-82
2022/03/15 06:01:46;;;;;;;143.23;52.70;;;4.50;99.90;;;;;;5051549;28;20434;-82
2022/03/15 06:04:12;;;;;;;117.18;46.30;;;4.50;99.90;;;;;;5050292;28;21003;-81
2022/03/15 06:06:38;;;;;;;109.25;42.92;;;4.60;99.90;;;;;;5067096;28;20374;-82
2022/03/15 06:09:04;;;;;;;116.03;43.92;;;4.70;99.90;;;;;;5066667;28;20382;-82
2022/03/15 06:11:32;;;;;;;184.35;57.03;;;4.80;99.90;;;;;;5060358;28;20409;-82
2022/03/15 06:14:01;;;;;;;98.47;42.75;;;4.80;99.90;;;;;;5058762;28;20450;-82
2022/03/15 06:16:26;;;;;;;95.03;39.58;;;4.80;99.90;;;;;;5059491;28;20406;-82
2022/03/15 06:18:52;;;;;;;129.60;43.97;;;4.80;99.90;;;;;;5058544;28;20875;-82
2022/03/15 06:21:18;;;;;;;55.63;35.53;;;4.90;99.90;;;;;;5058259;28;20810;-81
2022/03/15 06:23:44;;;;;;;87.57;40.07;;;5.00;99.90;;;;;;5058590;28;20362;-82
2022/03/15 06:26:09;;;;;;;179.63;53.00;;;5.00;99.90;;;;;;5056042;28;20401;-82
2022/03/15 06:28:36;;;;;;;64.57;35.63;;;5.10;99.90;;;;;;5056106;28;21707;-82
2022/03/15 06:31:02;;;;;;;172.13;57.88;;;5.10;99.90;;;;;;5040343;28;20394;-83
2022/03/15 06:33:29;;;;;;;107.55;50.55;;;5.20;99.90;;;;;;5055558;28;20418;-82
2022/03/15 06:35:55;;;;;;;77.93;45.37;;;5.30;99.90;;;;;;5055655;28;20955;-83
2022/03/15 06:38:20;;;;;;;68.93;41.03;;;5.30;99.90;;;;;;5059022;28;20477;-83
2022/03/15 06:40:48;;;;;;;147.83;50.20;;;5.30;99.90;;;;;;5057136;28;20384;-83
2022/03/15 06:43:14;;;;;;;100.90;42.85;;;5.50;99.90;;;;;;5056692;28;20390;-80
2022/03/15 06:45:41;;;;;;;69.50;37.92;;;5.50;99.90;;;;;;5057278;28;20386;-82
2022/03/15 06:48:08;;;;;;;70.05;37.58;;;5.60;99.90;;;;;;5054385;28;20401;-81
2022/03/15 06:50:34;;;;;;;64.88;37.30;;;5.80;99.90;;;;;;5054599;28;20387;-81
2022/03/15 06:53:00;;;;;;;50.60;34.30;;;6.00;99.90;;;;;;5056076;28;20421;-81
2022/03/15 06:55:26;;;;;;;50.20;35.05;;;6.10;99.90;;;;;;5057218;28;20880;-81
2022/03/15 06:57:52;;;;;;;41.72;32.50;;;6.20;99.90;;;;;;5057262;28;20382;-81
2022/03/15 07:00:18;;;;;;;48.50;33.70;;;6.40;99.90;;;;;;5061463;28;20376;-81
2022/03/15 07:02:44;;;;;;;42.50;33.17;;;6.60;99.90;;;;;;5061938;28;20390;-82
2022/03/15 07:05:10;;;;;;;45.33;33.93;;;6.60;99.90;;;;;;5059565;28;20408;-82
2022/03/15 07:07:37;;;;;;;43.13;34.53;;;6.70;99.90;;;;;;5060683;28;20491;-81
2022/03/15 07:10:07;;;;;;;42.47;33.83;;;6.90;99.90;;;;;;5057937;28;20387;-82
2022/03/15 07:12:33;;;;;;;42.33;34.53;;;6.90;99.90;;;;;;5060875;28;20403;-82
2022/03/15 07:15:00;;;;;;;46.22;35.45;;;7.10;99.90;;;;;;5055471;28;20408;-82
2022/03/15 07:17:27;;;;;;;42.90;34.17;;;7.10;99.90;;;;;;5061563;28;20788;-80
2022/03/15 07:19:52;;;;;;;40.75;33.30;;;7.30;99.90;;;;;;5062981;28;20463;-81
2022/03/15 07:22:18;;;;;;;45.40;35.77;;;7.50;99.90;;;;;;5061392;28;20498;-81
2022/03/15 07:24:44;;;;;;;47.67;33.93;;;7.60;99.90;;;;;;5059150;28;20385;-81
2022/03/15 11:17:40;;;;;;;29.10;20.33;;;15.30;99.90;;;;;;5925182;22;20427;-83
2022/03/15 11:20:07;;;;;;;27.73;20.97;;;14.90;99.90;;;;;;5043662;28;20435;-85
2022/03/15 11:22:43;;;;;;;25.10;18.88;;;15.00;99.90;;;;;;5046445;28;20458;-84
2022/03/15 11:25:14;;;;;;;25.45;17.42;;;15.10;99.90;;;;;;5047450;28;20376;-82
2022/03/15 11:27:42;;;;;;;26.00;19.33;;;15.20;99.90;;;;;;5051170;28;20411;-83
2022/03/15 11:30:11;;;;;;;26.80;19.63;;;15.10;99.90;;;;;;5048773;28;20376;-83
2022/03/15 11:32:37;;;;;;;30.52;20.83;;;15.40;99.90;;;;;;5048291;28;20405;-82
2022/03/15 11:35:06;;;;;;;25.67;19.83;;;15.40;99.90;;;;;;5045650;28;20397;-84
2022/03/15 11:37:37;;;;;;;30.35;22.98;;;15.40;99.90;;;;;;5047795;28;20425;-83
2022/03/15 11:40:05;;;;;;;30.13;23.60;;;15.40;99.90;;;;;;5049783;28;20389;-82
2022/03/15 11:42:32;;;;;;;32.53;23.83;;;15.30;99.90;;;;;;5047734;28;20774;-85
2022/03/15 11:45:20;;;;;;;30.30;23.52;;;15.20;99.90;;;;;;5045587;28;20366;-84
2022/03/15 11:48:10;;;;;;;30.60;24.30;;;15.20;99.90;;;;;;5046688;28;20400;-84
2022/03/15 11:50:58;;;;;;;32.33;24.83;;;15.10;99.90;;;;;;5049530;28;20397;-83
2022/03/15 11:53:34;;;;;;;30.17;24.13;;;15.20;99.90;;;;;;5048556;28;20709;-83
2022/03/15 11:56:05;;;;;;;32.58;25.00;;;15.10;99.90;;;;;;5047049;28;20419;-82
2022/03/15 11:58:32;;;;;;;30.98;23.15;;;14.80;99.90;;;;;;5051460;28;20383;-82
2022/03/15 12:01:12;;;;;;;32.33;24.17;;;15.00;99.90;;;;;;5049635;28;20745;-84
2022/03/15 12:03:47;;;;;;;30.42;22.10;;;15.20;99.90;;;;;;5047745;28;20821;-83
2022/03/15 12:06:23;;;;;;;29.70;21.65;;;15.30;99.90;;;;;;5047310;28;20385;-83
2022/03/15 12:08:53;;;;;;;29.13;21.83;;;15.20;99.90;;;;;;5043198;28;20393;-84
2022/03/15 12:11:36;;;;;;;32.90;22.38;;;15.20;99.90;;;;;;5041121;28;20385;-83
2022/03/15 12:14:20;;;;;;;28.73;22.40;;;15.40;99.90;;;;;;5042407;28;20406;-84
2022/03/15 12:16:51;;;;;;;27.37;20.93;;;15.40;99.90;;;;;;5040519;28;20439;-83
2022/03/15 12:19:35;;;;;;;29.87;21.00;;;15.50;99.90;;;;;;5041005;28;20417;-84
2022/03/15 12:22:06;;;;;;;26.95;20.63;;;15.60;99.90;;;;;;5041358;28;20382;-83
2022/03/15 12:24:40;;;;;;;29.77;20.33;;;15.70;99.90;;;;;;5040047;28;20530;-84
2022/03/15 12:27:27;;;;;;;25.37;20.30;;;15.80;99.90;;;;;;5044853;28;20452;-84
2022/03/15 12:29:58;;;;;;;30.75;22.75;;;15.80;99.90;;;;;;5050330;28;20780;-84
2022/03/15 12:32:26;;;;;;;28.92;22.08;;;15.80;99.90;;;;;;5047839;28;20388;-84
2022/03/15 12:34:57;;;;;;;29.30;21.30;;;15.70;99.90;;;;;;5045606;28;20976;-84
2022/03/15 12:37:39;;;;;;;30.27;21.20;;;15.70;99.90;;;;;;5048556;28;20385;-84
2022/03/15 12:40:10;;;;;;;28.33;19.88;;;15.80;99.90;;;;;;5055861;28;20887;-82
2022/03/15 12:42:50;;;;;;;28.20;21.00;;;16.00;99.90;;;;;;5056319;28;20400;-84
2022/03/15 12:45:15;;;;;;;26.93;20.87;;;16.00;99.90;;;;;;5051372;28;20459;-84
2022/03/15 12:47:44;;;;;;;29.27;20.77;;;;;;;;;;5048781;28;20377;-84
2022/03/15 12:50:13;;;;;;;27.60;20.83;;;;;;;;;;5051274;28;20388;-84
2022/03/15 12:52:40;;;;;;;26.75;20.05;;;;;;;;;;5049306;28;20383;-84
2022/03/15 12:55:07;;;;;;;29.33;21.35;;;;;;;;;;5051982;28;20429;-85
2022/03/15 12:57:33;;;;;;;29.75;21.10;;;;;;;;;;5052322;28;20462;-85
2022/03/15 12:59:59;;;;;;;27.02;20.50;;;;;;;;;;5051389;28;20377;-85
2022/03/15 13:02:25;;;;;;;22.90;16.85;;;;;;;;;;5040883;28;20377;-84
2022/03/15 13:04:51;;;;;;;22.23;15.73;;;;;;;;;;5037722;28;20391;-85
2022/03/15 13:07:28;;;;;;;22.08;16.08;;;16.00;99.90;;;;;;5039142;28;20370;-84
2022/03/15 13:09:58;;;;;;;23.20;16.70;;;16.10;99.90;;;;;;5038790;28;20393;-85
2022/03/15 13:12:33;;;;;;;26.38;21.63;;;16.00;99.90;;;;;;5038268;28;20417;-88
2022/03/15 13:14:59;;;;;;;25.55;17.92;;;16.00;99.90;;;;;;5035864;28;20845;-88
2022/03/15 13:17:29;;;;;;;23.13;17.63;;;15.90;99.90;;;;;;5036594;28;20942;-87
2022/03/15 13:19:55;;;;;;;26.02;17.77;;;16.10;99.90;;;;;;5040283;28;20380;-88
2022/03/15 13:22:29;;;;;;;27.63;18.13;;;16.30;99.90;;;;;;5035876;28;20388;-89
2022/03/15 13:24:56;;;;;;;23.02;17.13;;;16.40;99.90;;;;;;5038025;28;21241;-88
2022/03/15 13:27:25;;;;;;;21.75;16.45;;;;;;;;;;5037721;28;20378;-88
2022/03/15 13:29:51;;;;;;;24.70;18.58;;;16.30;99.90;;;;;;5039312;28;20447;-87
2022/03/15 13:32:23;;;;;;;26.33;19.30;;;16.30;99.90;;;;;;5042776;28;20870;-87
2022/03/15 13:34:58;;;;;;;26.63;18.50;;;16.40;99.90;;;;;;5038353;28;20391;-88
2022/03/15 13:37:24;;;;;;;23.40;17.73;;;16.30;99.90;;;;;;5038406;28;20384;-88
2022/03/15 13:39:50;;;;;;;25.75;18.30;;;16.20;99.90;;;;;;5038591;28;20725;-88
2022/03/15 13:42:16;;;;;;;24.25;18.40;;;16.00;99.90;;;;;;5039475;28;20378;-88
2022/03/15 13:44:53;;;;;;;26.58;18.77;;;15.90;99.90;;;;;;5036689;28;20409;-87
2022/03/15 13:47:25;;;;;;;25.75;17.88;;;15.90;99.90;;;;;;5034999;28;20470;-88
2022/03/15 13:49:57;;;;;;;25.38;17.65;;;15.70;99.90;;;;;;5039577;28;20462;-88
2022/03/15 13:52:24;;;;;;;23.80;17.70;;;15.80;99.90;;;;;;5043256;28;20733;-88
2022/03/15 13:55:01;;;;;;;25.35;17.67;;;15.70;99.90;;;;;;5045900;28;20791;-87
2022/03/15 13:57:34;;;;;;;28.27;18.85;;;15.60;99.90;;;;;;5035190;28;20392;-88
2022/03/15 14:00:05;;;;;;;24.35;18.38;;;15.70;99.90;;;;;;5043428;28;20426;-87
2022/03/15 14:02:36;;;;;;;24.05;18.17;;;15.50;99.90;;;;;;5034461;28;20389;-86
2022/03/15 14:05:04;;;;;;;23.23;17.95;;;15.60;99.90;;;;;;5033224;28;20397;-87
2022/03/15 14:07:30;;;;;;;26.80;19.02;;;15.40;99.90;;;;;;5034831;28;20385;-87
2022/03/15 14:10:06;;;;;;;24.83;19.50;;;15.20;99.90;;;;;;5034340;28;20378;-87
2022/03/15 14:12:33;;;;;;;22.45;18.10;;;15.10;99.90;;;;;;5034708;28;20454;-87
2022/03/15 14:15:06;;;;;;;25.03;18.97;;;15.10;99.90;;;;;;5048511;28;20421;-88
2022/03/15 14:17:54;;;;;;;26.45;18.95;;;15.10;99.90;;;;;;5037494;28;20408;-88
2022/03/15 14:20:26;;;;;;;24.27;18.13;;;15.10;99.90;;;;;;5038280;28;20434;-88
2022/03/15 14:22:54;;;;;;;22.30;16.67;;;15.00;99.90;;;;;;5034684;28;20539;-88
2022/03/15 14:25:29;;;;;;;27.83;19.65;;;15.10;99.90;;;;;;5042623;28;20388;-88
2022/03/15 14:27:58;;;;;;;25.05;18.85;;;15.20;99.90;;;;;;5035363;28;20388;-88
2022/03/15 14:30:24;;;;;;;24.23;18.83;;;15.20;99.90;;;;;;5042410;28;20374;-87
2022/03/15 14:33:00;;;;;;;22.73;17.67;;;15.10;99.90;;;;;;5055914;28;20382;-89
2022/03/15 14:35:31;;;;;;;21.67;17.23;;;15.10;99.90;;;;;;5050382;28;20384;-89
2022/03/15 14:38:05;;;;;;;22.20;16.65;;;15.20;99.90;;;;;;5051115;28;21178;-89
2022/03/15 14:40:38;;;;;;;20.08;15.38;;;15.10;99.90;;;;;;5052730;28;20464;-88
2022/03/15 14:43:06;;;;;;;18.65;14.75;;;15.10;99.90;;;;;;5050377;28;20907;-88
2022/03/15 14:45:33;;;;;;;20.98;16.38;;;15.10;99.90;;;;;;5029290;28;20417;-88
2022/03/15 14:47:59;;;;;;;21.27;16.88;;;15.00;99.90;;;;;;5051420;28;20396;-88
2022/03/15 14:50:25;;;;;;;23.33;17.50;;;15.00;99.90;;;;;;5051137;28;20401;-89
2022/03/15 14:52:51;;;;;;;29.37;18.30;;;15.00;99.90;;;;;;5030886;28;20385;-89
2022/03/15 14:55:20;;;;;;;21.70;16.60;;;14.80;99.90;;;;;;5043526;28;20390;-88
2022/03/15 14:57:46;;;;;;;24.40;18.23;;;14.70;99.90;;;;;;5054997;28;20393;-87
2022/03/15 15:00:12;;;;;;;20.17;16.90;;;14.70;99.90;;;;;;5056540;28;20399;-88
2022/03/15 15:02:39;;;;;;;23.25;17.88;;;14.70;99.90;;;;;;5043615;28;20389;-88
2022/03/15 15:05:09;;;;;;;24.85;17.73;;;14.70;99.90;;;;;;5039535;28;20416;-88
2022/03/15 15:07:44;;;;;;;24.85;18.80;;;14.60;99.90;;;;;;5040743;28;20382;-88
2022/03/15 15:10:10;;;;;;;19.67;16.53;;;14.60;99.90;;;;;;5044236;28;20385;-88
2022/03/15 15:12:36;;;;;;;27.52;18.42;;;14.50;99.90;;;;;;5039878;28;20384;-88
2022/03/15 15:15:03;;;;;;;21.50;17.13;;;14.40;99.90;;;;;;5043220;28;20374;-88
2022/03/15 15:17:33;;;;;;;21.38;16.75;;;14.30;99.90;;;;;;5036408;28;20401;-88
2022/03/15 15:20:01;;;;;;;21.63;18.02;;;14.30;99.90;;;;;;5024651;28;20400;-89
2022/03/15 15:22:27;;;;;;;23.27;16.88;;;14.40;99.90;;;;;;5045482;28;20379;-88
2022/03/15 15:24:56;;;;;;;22.95;16.95;;;14.40;99.90;;;;;;5036340;28;20444;-88
2022/03/15 15:27:29;;;;;;;32.00;16.73;;;14.40;99.90;;;;;;5044520;28;20811;-88
2022/03/15 15:29:56;;;;;;;21.83;15.93;;;14.30;99.90;;;;;;5040217;28;20467;-88
2022/03/15 15:32:22;;;;;;;19.77;13.77;;;14.30;99.90;;;;;;5040010;28;20384;-88
2022/03/15 15:34:51;;;;;;;27.77;15.10;;;14.20;99.90;;;;;;5041056;28;20389;-88
2022/03/15 15:37:17;;;;;;;25.73;15.45;;;14.20;99.90;;;;;;5043606;28;20421;-88
2022/03/15 15:39:48;;;;;;;17.55;14.13;;;14.00;99.90;;;;;;5047902;28;20403;-88
2022/03/15 15:42:17;;;;;;;19.77;15.02;;;13.90;99.90;;;;;;5047089;28;20386;-87
2022/03/15 15:44:46;;;;;;;21.20;15.23;;;13.90;99.90;;;;;;5046827;28;20405;-88
2022/03/15 15:47:23;;;;;;;17.73;13.68;;;13.80;99.90;;;;;;5044506;28;20390;-88
2022/03/15 15:49:51;;;;;;;18.27;14.50;;;13.80;99.90;;;;;;5043996;28;20393;-88
2022/03/15 15:52:17;;;;;;;19.95;15.30;;;13.70;99.90;;;;;;5043673;28;20388;-88
2022/03/15 15:54:52;;;;;;;16.43;13.43;;;13.80;99.90;;;;;;5039759;28;20381;-88
2022/03/15 15:57:18;;;;;;;17.95;14.38;;;13.70;99.90;;;;;;5042307;28;20386;-88
2022/03/15 15:59:44;;;;;;;20.27;14.70;;;13.80;99.90;;;;;;5041607;28;20877;-88
2022/03/15 16:02:12;;;;;;;19.23;14.23;;;13.60;99.90;;;;;;5038794;28;20389;-88
2022/03/15 16:04:38;;;;;;;21.33;15.18;;;13.50;99.90;;;;;;5038822;28;20416;-87
2022/03/15 16:07:24;;;;;;;28.05;13.88;;;13.50;99.90;;;;;;5039415;28;20399;-88
2022/03/15 16:09:50;;;;;;;20.90;14.82;;;13.40;99.90;;;;;;5042301;28;20396;-87
2022/03/15 16:12:18;;;;;;;21.13;15.07;;;13.40;99.90;;;;;;5040673;28;20415;-89
2022/03/15 16:14:43;;;;;;;19.40;13.32;;;13.30;99.90;;;;;;5039269;28;20369;-89
2022/03/15 16:17:09;;;;;;;15.33;12.50;;;13.20;99.90;;;;;;5042229;28;20400;-88
2022/03/15 16:19:35;;;;;;;19.10;13.75;;;13.10;99.90;;;;;;5039150;28;20475;-89
2022/03/15 16:22:02;;;;;;;17.00;11.95;;;13.00;99.90;;;;;;5038967;28;20456;-89
2022/03/15 16:24:27;;;;;;;19.50;13.70;;;13.00;99.90;;;;;;5039002;28;20397;-89
2022/03/15 16:26:53;;;;;;;20.33;15.13;;;13.10;99.90;;;;;;5037424;28;21139;-89
2022/03/15 16:29:19;;;;;;;20.05;14.50;;;13.00;99.90;;;;;;5040504;28;20400;-88